Idabel, OK

7:50 PM CDT on April 24, 2015 (GMT -0500)
Stone Haven | | Change Station
CLOSE
Current Station
Personal Weather Station
Location: Idabel, OK
Elevation: 489 ft
Nearby Weather Stations

Elev 489 ft 33.87 °N, 94.83 °W | Updated 6 seconds ago

Overcast
Overcast
62.4 °F
Feels Like 62.4 °F
N
2.0
Wind Variable Wind from East
Gusts 4.0 mph

Today
High -- | Low -- °F
--% Chance of Precip.
Yesterday
High -- | Low -- °F
Precip. -- in
6:37 AM 7:57 PM
Waxing Crescent, 41% visible
Pressure 29.74 in
Visibility 10.0 miles
Clouds Scattered Clouds 700 ft
Scattered Clouds 2200 ft
Mostly Cloudy 6500 ft
Dew Point 61 °F
Humidity 96%
Rainfall 1.27 in
Snow Depth Not available.
UV 0 out of 12
Pollen 6.50 out of 12
Air Quality Not available.
Flu Activity Local Activity
METAR K4O4 250035Z AUTO 08009G14KT 10SM SCT007 SCT022 BKN065 16/15 A2974 RMK AO2

More Conditions Fewer Conditions

Pressure 29.74 in
Visibility 10.0 miles
Clouds Scattered Clouds 700 ft
Scattered Clouds 2200 ft
Mostly Cloudy 6500 ft
Dew Point 61 °F
Humidity 96%
Rainfall 1.27 in
Snow Depth Not available.
UV 0 out of 12
Pollen 6.50 out of 12
Air Quality Not available.
Flu Activity Local Activity
METAR K4O4 250035Z AUTO 08009G14KT 10SM SCT007 SCT022 BKN065 16/15 A2974 RMK AO2

More Conditions Fewer Conditions

There is an enhanced risk of severe weather for parts of Texas, Louisiana, southern Arkansas, and Kansas. A slight risk of severe weather encompasses a wide area of the Plains and Lower Mississippi Valley as well. This means severe thunderstorms will be capable of producing strong wind, large hail, heavy rain, and the possibility of tornadoes into the evening.

Nowcast | as of 7:20 PM CDT on April 24, 2015

Scattered showers and thunderstorms will continue throughout the night in southeast Oklahoma and southern Arkansas.These storms are capable of producing strong winds 50 mph or greater and hail.Movement will be to the east northeast near 45 mph.

×

10-Day Weather Forecast

Almanac

Astronomy

Apr. 24, 2015 Rise Set
Actual Time
Civil Twilight
Nautical Twilight
Astronomical Twilight
Moon
Length of Visible Light
Length of Day
Tomorrow will be .
, % of the Moon is Illuminated

Today's Extremes

State Highs State Lows

Community

WunderPhotos

Upload Photos

1,816,526 photos uploaded!

WunderBlogs® & News

Nearby

Air Quality

  Air Quality AQ Index Pollutant
Not available.

Snow Depth

Station Depth Elevation

Earthquake Activity

City Distance Mag. Time & Date
Minimum magnitude displayed is 2.5.

Coastal Water Temperatures

Place Temperature

Stations

Nearby Weather Stations

Station Location Temp. Windchill Dew Point Humidity Wind Precip. Elev Updated Type